Northern, Minnesota
Current Conditions -  °F | °C
As of 9:33 AM on Friday 24 Oct 2014 (Local Time) from KBJI Reporting Station
Clear Clear  
Wind Chill: 52°   Ceiling: Unl
Heat Index: 52°   Visibility: 10mi
Dew Point: 43°   Wind: 7mph
Humidity: 71%   Direction: 200°SSW
Pressure: 29.78"   Gusts: NA
Location:  47.5271°N, 94.7611°W
Report Text: KBJI 241433Z AUTO 20006KT 10SM CLR 11/06 A2978 RMK AO2 T01120061
Loading
Personal Weather Stations






























Interactive Weather Map
Tropical Storm Tracking
New forecast layout! Learn more

10-Day Weather Forecast

Advertisements
Track Severe Weather on mobile